Portada
METAR-TAF:

METAR-TAF

Aeroports :

Bordeus, França

latitud: 44-50N, longitud: 000-42W, altitud: 49 m

Observació

L'informe es va fer fa 34 minuts, a les 07:00 UTC
Vent 8 kt del Est/Nord-Est, variant entre Nord/Nord-Est i Est
Temperatura 20°C
Humitat 53%
Pressió 1019 hPa
Visibilitat 10 km o més
sense núvols per sota de 1500 mi sense presència de cumulonimbus.

METAR: LFBD 250700Z AUTO 06008KT 030V090 CAVOK 20/10 Q1019 NOSIG

Hora: 09:34 (07:34 UTC)

Pronòstic

L'informe es va fer fa 2 hores i 34 minuts, a les 05:00 UTC
Pronòstic vàlid del 25 a les 06 UTC al 26 a les 12 UTC
Vent 10 kt del Nord-Est
Visibilitat 10 km o més
sense núvols per sota de 1500 mi sense presència de cumulonimbus.

TAF: LFBD 250500Z 2506/2612 04010KT CAVOK TX31/2515Z TN17/2506Z

Observacions i pronòstics meteorològics de més de 4000 aeroports (METAR i TAF).

Les estacions disponibles són els punts grocs i vermells al mapa.

Posi el ratolí al punt desitjat per veure el nom de l'estació.

Feu clic per veure les observacions i els pronòstics meteorològics.

Per canviar el mapa: feu clic els botons verds amb una creu de color negre per apropar; al botó verd amb un guió per allunyar la imatge; o en les fletxes verdes per a mapes adjacents.


METAR-TAF: